sensor_id;sensor_type;location;lat;lon;timestamp;temperature;humidity
35700;DHT22;21818;51.078;12.108;2023-06-10T00:02:26;18.90;85.50
35700;DHT22;21818;51.078;12.108;2023-06-10T00:04:52;18.90;85.30
35700;DHT22;21818;51.078;12.108;2023-06-10T00:07:18;18.90;85.40
35700;DHT22;21818;51.078;12.108;2023-06-10T00:09:43;18.90;85.60
35700;DHT22;21818;51.078;12.108;2023-06-10T00:12:09;18.90;85.60
35700;DHT22;21818;51.078;12.108;2023-06-10T00:14:39;18.90;85.80
35700;DHT22;21818;51.078;12.108;2023-06-10T00:17:05;18.80;86.00
35700;DHT22;21818;51.078;12.108;2023-06-10T00:19:36;18.70;86.40
35700;DHT22;21818;51.078;12.108;2023-06-10T00:22:02;18.70;86.40
35700;DHT22;21818;51.078;12.108;2023-06-10T00:24:28;18.70;86.30
35700;DHT22;21818;51.078;12.108;2023-06-10T00:26:54;18.60;86.30
35700;DHT22;21818;51.078;12.108;2023-06-10T00:29:20;18.60;86.40
35700;DHT22;21818;51.078;12.108;2023-06-10T00:31:45;18.60;86.50
35700;DHT22;21818;51.078;12.108;2023-06-10T00:34:12;18.50;86.60
35700;DHT22;21818;51.078;12.108;2023-06-10T00:36:37;18.50;86.80
35700;DHT22;21818;51.078;12.108;2023-06-10T00:39:03;18.50;87.00
35700;DHT22;21818;51.078;12.108;2023-06-10T00:41:30;18.50;87.30
35700;DHT22;21818;51.078;12.108;2023-06-10T00:43:56;18.50;87.50
35700;DHT22;21818;51.078;12.108;2023-06-10T00:46:23;18.40;87.80
35700;DHT22;21818;51.078;12.108;2023-06-10T00:48:49;18.40;87.90
35700;DHT22;21818;51.078;12.108;2023-06-10T00:51:16;18.40;87.90
35700;DHT22;21818;51.078;12.108;2023-06-10T00:53:42;18.40;87.90
35700;DHT22;21818;51.078;12.108;2023-06-10T00:56:08;18.40;87.90
35700;DHT22;21818;51.078;12.108;2023-06-10T00:58:35;18.40;87.90
35700;DHT22;21818;51.078;12.108;2023-06-10T01:01:01;18.40;88.10
35700;DHT22;21818;51.078;12.108;2023-06-10T01:03:27;18.40;88.00
35700;DHT22;21818;51.078;12.108;2023-06-10T01:06:28;18.40;88.00
35700;DHT22;21818;51.078;12.108;2023-06-10T01:08:58;18.40;88.60
35700;DHT22;21818;51.078;12.108;2023-06-10T01:11:33;18.30;88.40
35700;DHT22;21818;51.078;12.108;2023-06-10T01:14:00;18.30;88.70
35700;DHT22;21818;51.078;12.108;2023-06-10T01:16:26;18.10;89.10
35700;DHT22;21818;51.078;12.108;2023-06-10T01:18:53;18.10;89.10
35700;DHT22;21818;51.078;12.108;2023-06-10T01:21:21;18.10;89.20
35700;DHT22;21818;51.078;12.108;2023-06-10T01:23:47;18.00;89.00
35700;DHT22;21818;51.078;12.108;2023-06-10T01:26:13;18.00;89.20
35700;DHT22;21818;51.078;12.108;2023-06-10T01:28:48;18.10;88.70
35700;DHT22;21818;51.078;12.108;2023-06-10T01:31:49;18.10;89.10
35700;DHT22;21818;51.078;12.108;2023-06-10T01:34:18;18.10;88.80
35700;DHT22;21818;51.078;12.108;2023-06-10T01:36:48;18.00;88.70
35700;DHT22;21818;51.078;12.108;2023-06-10T01:39:16;18.00;88.90
35700;DHT22;21818;51.078;12.108;2023-06-10T01:41:43;17.90;89.10
35700;DHT22;21818;51.078;12.108;2023-06-10T01:44:09;17.80;89.40
35700;DHT22;21818;51.078;12.108;2023-06-10T01:46:35;17.80;90.00
35700;DHT22;21818;51.078;12.108;2023-06-10T01:49:00;17.60;89.80
35700;DHT22;21818;51.078;12.108;2023-06-10T01:51:26;17.50;90.00
35700;DHT22;21818;51.078;12.108;2023-06-10T01:53:52;17.50;90.20
35700;DHT22;21818;51.078;12.108;2023-06-10T01:56:17;17.50;90.30
35700;DHT22;21818;51.078;12.108;2023-06-10T01:58:45;17.40;90.30
35700;DHT22;21818;51.078;12.108;2023-06-10T02:01:11;17.30;90.60
35700;DHT22;21818;51.078;12.108;2023-06-10T02:03:37;17.20;90.70
35700;DHT22;21818;51.078;12.108;2023-06-10T02:06:03;17.20;90.80
35700;DHT22;21818;51.078;12.108;2023-06-10T02:08:28;17.10;91.00
35700;DHT22;21818;51.078;12.108;2023-06-10T02:10:54;17.10;91.00
35700;DHT22;21818;51.078;12.108;2023-06-10T02:13:19;17.00;91.00
35700;DHT22;21818;51.078;12.108;2023-06-10T02:15:45;16.90;91.40
35700;DHT22;21818;51.078;12.108;2023-06-10T02:18:10;16.90;91.40
35700;DHT22;21818;51.078;12.108;2023-06-10T02:20:37;17.00;91.50
35700;DHT22;21818;51.078;12.108;2023-06-10T02:23:03;16.80;91.60
35700;DHT22;21818;51.078;12.108;2023-06-10T02:25:28;16.70;92.00
35700;DHT22;21818;51.078;12.108;2023-06-10T02:27:54;16.60;92.20
35700;DHT22;21818;51.078;12.108;2023-06-10T02:30:20;16.50;92.30
35700;DHT22;21818;51.078;12.108;2023-06-10T02:32:45;16.50;92.40
35700;DHT22;21818;51.078;12.108;2023-06-10T02:35:14;16.50;92.70
35700;DHT22;21818;51.078;12.108;2023-06-10T02:37:39;16.30;92.80
35700;DHT22;21818;51.078;12.108;2023-06-10T02:40:06;16.40;92.90
35700;DHT22;21818;51.078;12.108;2023-06-10T02:42:31;16.30;93.10
35700;DHT22;21818;51.078;12.108;2023-06-10T02:44:57;16.30;93.30
35700;DHT22;21818;51.078;12.108;2023-06-10T02:47:22;16.30;93.40
35700;DHT22;21818;51.078;12.108;2023-06-10T02:49:48;16.30;93.40
35700;DHT22;21818;51.078;12.108;2023-06-10T02:52:13;16.30;93.50
35700;DHT22;21818;51.078;12.108;2023-06-10T02:54:39;16.30;93.50
35700;DHT22;21818;51.078;12.108;2023-06-10T02:57:05;16.30;93.50
35700;DHT22;21818;51.078;12.108;2023-06-10T02:59:31;16.20;93.70
35700;DHT22;21818;51.078;12.108;2023-06-10T03:01:57;16.10;93.90
35700;DHT22;21818;51.078;12.108;2023-06-10T03:04:23;16.10;94.00
35700;DHT22;21818;51.078;12.108;2023-06-10T03:06:50;16.10;94.10
35700;DHT22;21818;51.078;12.108;2023-06-10T03:09:16;16.00;94.10
35700;DHT22;21818;51.078;12.108;2023-06-10T03:11:41;16.00;94.10
35700;DHT22;21818;51.078;12.108;2023-06-10T03:14:07;15.90;94.30
35700;DHT22;21818;51.078;12.108;2023-06-10T03:16:32;15.90;94.40
35700;DHT22;21818;51.078;12.108;2023-06-10T03:18:58;16.00;94.30
35700;DHT22;21818;51.078;12.108;2023-06-10T03:21:24;15.90;94.50
35700;DHT22;21818;51.078;12.108;2023-06-10T03:23:49;15.90;94.50
35700;DHT22;21818;51.078;12.108;2023-06-10T03:26:15;15.90;94.60
35700;DHT22;21818;51.078;12.108;2023-06-10T03:28:41;15.80;94.80
35700;DHT22;21818;51.078;12.108;2023-06-10T03:31:07;15.70;95.00
35700;DHT22;21818;51.078;12.108;2023-06-10T03:33:32;15.60;95.10
35700;DHT22;21818;51.078;12.108;2023-06-10T03:35:58;15.60;95.20
35700;DHT22;21818;51.078;12.108;2023-06-10T03:38:24;15.60;95.20
35700;DHT22;21818;51.078;12.108;2023-06-10T03:40:49;15.60;95.50
35700;DHT22;21818;51.078;12.108;2023-06-10T03:43:15;15.60;95.40
35700;DHT22;21818;51.078;12.108;2023-06-10T03:45:41;15.60;95.70
35700;DHT22;21818;51.078;12.108;2023-06-10T03:48:07;15.70;95.60
35700;DHT22;21818;51.078;12.108;2023-06-10T03:50:34;15.90;95.40
35700;DHT22;21818;51.078;12.108;2023-06-10T03:52:59;16.10;95.30
35700;DHT22;21818;51.078;12.108;2023-06-10T03:55:25;16.20;95.10
35700;DHT22;21818;51.078;12.108;2023-06-10T03:57:51;16.20;95.30
35700;DHT22;21818;51.078;12.108;2023-06-10T04:00:17;16.30;95.30
35700;DHT22;21818;51.078;12.108;2023-06-10T04:02:43;16.40;94.90
35700;DHT22;21818;51.078;12.108;2023-06-10T04:05:14;16.50;95.10
35700;DHT22;21818;51.078;12.108;2023-06-10T04:07:41;16.50;95.00
35700;DHT22;21818;51.078;12.108;2023-06-10T04:10:08;16.60;94.70
35700;DHT22;21818;51.078;12.108;2023-06-10T04:12:34;16.60;94.90
35700;DHT22;21818;51.078;12.108;2023-06-10T04:15:00;16.70;94.90
35700;DHT22;21818;51.078;12.108;2023-06-10T04:17:26;16.70;95.10
35700;DHT22;21818;51.078;12.108;2023-06-10T04:19:52;16.80;94.80
35700;DHT22;21818;51.078;12.108;2023-06-10T04:22:18;16.90;94.80
35700;DHT22;21818;51.078;12.108;2023-06-10T04:24:43;16.80;94.90
35700;DHT22;21818;51.078;12.108;2023-06-10T04:27:09;16.80;95.00
35700;DHT22;21818;51.078;12.108;2023-06-10T04:29:35;16.80;95.10
35700;DHT22;21818;51.078;12.108;2023-06-10T04:32:01;16.80;95.20
35700;DHT22;21818;51.078;12.108;2023-06-10T04:34:27;16.90;95.10
35700;DHT22;21818;51.078;12.108;2023-06-10T04:36:53;16.90;95.20
35700;DHT22;21818;51.078;12.108;2023-06-10T04:39:19;16.90;95.00
35700;DHT22;21818;51.078;12.108;2023-06-10T04:41:45;16.90;95.20
35700;DHT22;21818;51.078;12.108;2023-06-10T04:44:11;17.00;95.00
35700;DHT22;21818;51.078;12.108;2023-06-10T04:46:37;16.90;95.20
35700;DHT22;21818;51.078;12.108;2023-06-10T04:49:03;16.90;95.40
35700;DHT22;21818;51.078;12.108;2023-06-10T04:51:30;17.10;95.10
35700;DHT22;21818;51.078;12.108;2023-06-10T04:53:57;17.10;95.00
35700;DHT22;21818;51.078;12.108;2023-06-10T04:56:23;17.10;95.20
35700;DHT22;21818;51.078;12.108;2023-06-10T04:58:49;17.10;95.30
35700;DHT22;21818;51.078;12.108;2023-06-10T05:01:15;17.10;95.30
35700;DHT22;21818;51.078;12.108;2023-06-10T05:03:40;17.10;95.40
35700;DHT22;21818;51.078;12.108;2023-06-10T05:06:06;17.10;95.60
35700;DHT22;21818;51.078;12.108;2023-06-10T05:08:31;17.10;95.50
35700;DHT22;21818;51.078;12.108;2023-06-10T05:10:57;17.10;95.60
35700;DHT22;21818;51.078;12.108;2023-06-10T05:13:23;17.20;95.40
35700;DHT22;21818;51.078;12.108;2023-06-10T05:15:49;17.30;95.30
35700;DHT22;21818;51.078;12.108;2023-06-10T05:18:14;17.30;95.60
35700;DHT22;21818;51.078;12.108;2023-06-10T05:20:40;17.40;95.30
35700;DHT22;21818;51.078;12.108;2023-06-10T05:23:05;17.30;95.30
35700;DHT22;21818;51.078;12.108;2023-06-10T05:25:32;17.70;95.10
35700;DHT22;21818;51.078;12.108;2023-06-10T05:27:58;18.60;94.10
35700;DHT22;21818;51.078;12.108;2023-06-10T05:30:24;19.30;93.20
35700;DHT22;21818;51.078;12.108;2023-06-10T05:32:51;19.70;92.50
35700;DHT22;21818;51.078;12.108;2023-06-10T05:35:16;20.10;92.10
35700;DHT22;21818;51.078;12.108;2023-06-10T05:37:42;20.30;91.80
35700;DHT22;21818;51.078;12.108;2023-06-10T05:40:09;20.40;91.60
35700;DHT22;21818;51.078;12.108;2023-06-10T05:42:35;20.50;91.40
35700;DHT22;21818;51.078;12.108;2023-06-10T05:45:00;20.60;91.20
35700;DHT22;21818;51.078;12.108;2023-06-10T05:47:26;20.70;91.10
35700;DHT22;21818;51.078;12.108;2023-06-10T05:49:51;20.80;91.00
35700;DHT22;21818;51.078;12.108;2023-06-10T05:52:17;20.90;91.10
35700;DHT22;21818;51.078;12.108;2023-06-10T05:54:43;20.90;90.70
35700;DHT22;21818;51.078;12.108;2023-06-10T05:57:09;21.00;90.60
35700;DHT22;21818;51.078;12.108;2023-06-10T05:59:35;21.00;90.50
35700;DHT22;21818;51.078;12.108;2023-06-10T06:02:01;21.10;90.40
35700;DHT22;21818;51.078;12.108;2023-06-10T06:04:27;21.10;90.30
35700;DHT22;21818;51.078;12.108;2023-06-10T06:06:52;21.20;90.30
35700;DHT22;21818;51.078;12.108;2023-06-10T06:09:18;21.20;90.20
35700;DHT22;21818;51.078;12.108;2023-06-10T06:11:43;21.20;90.10
35700;DHT22;21818;51.078;12.108;2023-06-10T06:14:09;21.30;90.00
35700;DHT22;21818;51.078;12.108;2023-06-10T06:16:34;21.30;89.90
35700;DHT22;21818;51.078;12.108;2023-06-10T06:19:00;21.30;89.80
35700;DHT22;21818;51.078;12.108;2023-06-10T06:21:25;21.30;89.60
35700;DHT22;21818;51.078;12.108;2023-06-10T06:23:51;21.40;89.50
35700;DHT22;21818;51.078;12.108;2023-06-10T06:26:17;21.30;89.40
35700;DHT22;21818;51.078;12.108;2023-06-10T06:28:42;21.40;89.20
35700;DHT22;21818;51.078;12.108;2023-06-10T06:31:08;21.40;89.10
35700;DHT22;21818;51.078;12.108;2023-06-10T06:33:33;21.50;89.00
35700;DHT22;21818;51.078;12.108;2023-06-10T06:35:59;21.50;88.80
35700;DHT22;21818;51.078;12.108;2023-06-10T06:38:27;21.50;88.80
35700;DHT22;21818;51.078;12.108;2023-06-10T06:40:53;21.50;88.60
35700;DHT22;21818;51.078;12.108;2023-06-10T06:43:19;21.50;88.60
35700;DHT22;21818;51.078;12.108;2023-06-10T06:45:45;21.50;88.40
35700;DHT22;21818;51.078;12.108;2023-06-10T06:48:11;21.50;88.30
35700;DHT22;21818;51.078;12.108;2023-06-10T06:50:37;21.60;88.20
35700;DHT22;21818;51.078;12.108;2023-06-10T06:53:04;21.60;88.10
35700;DHT22;21818;51.078;12.108;2023-06-10T06:55:29;21.60;88.00
35700;DHT22;21818;51.078;12.108;2023-06-10T06:57:55;21.60;87.90
35700;DHT22;21818;51.078;12.108;2023-06-10T07:00:21;21.60;87.80
35700;DHT22;21818;51.078;12.108;2023-06-10T07:02:47;21.70;87.80
35700;DHT22;21818;51.078;12.108;2023-06-10T07:05:12;21.70;87.70
35700;DHT22;21818;51.078;12.108;2023-06-10T07:07:38;21.70;87.60
35700;DHT22;21818;51.078;12.108;2023-06-10T07:10:04;21.70;87.50
35700;DHT22;21818;51.078;12.108;2023-06-10T07:12:29;21.70;87.40
35700;DHT22;21818;51.078;12.108;2023-06-10T07:14:55;21.70;87.40
35700;DHT22;21818;51.078;12.108;2023-06-10T07:17:21;21.70;87.30
35700;DHT22;21818;51.078;12.108;2023-06-10T07:19:46;21.80;87.20
35700;DHT22;21818;51.078;12.108;2023-06-10T07:22:12;21.80;87.10
35700;DHT22;21818;51.078;12.108;2023-06-10T07:24:37;21.80;87.10
35700;DHT22;21818;51.078;12.108;2023-06-10T07:27:03;21.80;87.00
35700;DHT22;21818;51.078;12.108;2023-06-10T07:29:29;21.80;86.90
35700;DHT22;21818;51.078;12.108;2023-06-10T07:31:54;21.80;86.80
35700;DHT22;21818;51.078;12.108;2023-06-10T07:34:20;21.80;86.70
35700;DHT22;21818;51.078;12.108;2023-06-10T07:36:46;21.90;86.70
35700;DHT22;21818;51.078;12.108;2023-06-10T07:39:12;21.90;86.60
35700;DHT22;21818;51.078;12.108;2023-06-10T07:41:38;21.90;86.60
35700;DHT22;21818;51.078;12.108;2023-06-10T07:44:03;21.90;86.50
35700;DHT22;21818;51.078;12.108;2023-06-10T07:46:29;21.90;86.40
35700;DHT22;21818;51.078;12.108;2023-06-10T07:48:55;21.90;86.30
35700;DHT22;21818;51.078;12.108;2023-06-10T07:51:21;21.90;86.30
35700;DHT22;21818;51.078;12.108;2023-06-10T07:53:47;21.90;86.20
35700;DHT22;21818;51.078;12.108;2023-06-10T07:56:12;22.00;86.20
35700;DHT22;21818;51.078;12.108;2023-06-10T07:58:38;22.00;86.10
35700;DHT22;21818;51.078;12.108;2023-06-10T08:01:04;22.00;86.00
35700;DHT22;21818;51.078;12.108;2023-06-10T08:03:29;22.00;86.00
35700;DHT22;21818;51.078;12.108;2023-06-10T08:05:55;22.00;85.90
35700;DHT22;21818;51.078;12.108;2023-06-10T08:08:20;22.00;85.80
35700;DHT22;21818;51.078;12.108;2023-06-10T08:10:46;22.00;85.80
35700;DHT22;21818;51.078;12.108;2023-06-10T08:13:12;22.00;85.70
35700;DHT22;21818;51.078;12.108;2023-06-10T08:15:37;22.10;85.70
35700;DHT22;21818;51.078;12.108;2023-06-10T08:18:03;22.10;85.60
35700;DHT22;21818;51.078;12.108;2023-06-10T08:20:29;22.10;85.60
35700;DHT22;21818;51.078;12.108;2023-06-10T08:22:54;22.10;85.60
35700;DHT22;21818;51.078;12.108;2023-06-10T08:25:20;22.10;85.50
35700;DHT22;21818;51.078;12.108;2023-06-10T08:27:47;22.10;85.40
35700;DHT22;21818;51.078;12.108;2023-06-10T08:30:13;22.10;85.40
35700;DHT22;21818;51.078;12.108;2023-06-10T08:32:39;22.10;85.30
35700;DHT22;21818;51.078;12.108;2023-06-10T08:35:05;22.20;85.30
35700;DHT22;21818;51.078;12.108;2023-06-10T08:37:30;22.20;85.20
35700;DHT22;21818;51.078;12.108;2023-06-10T08:39:56;22.20;85.20
35700;DHT22;21818;51.078;12.108;2023-06-10T08:42:43;22.20;85.20
35700;DHT22;21818;51.078;12.108;2023-06-10T08:45:16;22.20;85.10
35700;DHT22;21818;51.078;12.108;2023-06-10T08:47:44;22.20;85.00
35700;DHT22;21818;51.078;12.108;2023-06-10T08:50:11;22.20;85.00
35700;DHT22;21818;51.078;12.108;2023-06-10T08:52:37;22.20;84.90
35700;DHT22;21818;51.078;12.108;2023-06-10T08:57:37;22.20;84.80
35700;DHT22;21818;51.078;12.108;2023-06-10T09:00:05;22.20;84.80
35700;DHT22;21818;51.078;12.108;2023-06-10T09:02:31;22.30;84.70
35700;DHT22;21818;51.078;12.108;2023-06-10T09:05:00;22.30;84.70
35700;DHT22;21818;51.078;12.108;2023-06-10T09:07:26;22.30;84.70
35700;DHT22;21818;51.078;12.108;2023-06-10T09:09:53;22.30;84.60
35700;DHT22;21818;51.078;12.108;2023-06-10T09:12:20;22.30;84.50
35700;DHT22;21818;51.078;12.108;2023-06-10T09:14:45;22.30;84.60
35700;DHT22;21818;51.078;12.108;2023-06-10T09:17:11;22.30;84.60
35700;DHT22;21818;51.078;12.108;2023-06-10T09:19:38;22.30;84.50
35700;DHT22;21818;51.078;12.108;2023-06-10T09:22:05;22.40;84.50
35700;DHT22;21818;51.078;12.108;2023-06-10T09:24:31;22.30;84.40
35700;DHT22;21818;51.078;12.108;2023-06-10T09:27:06;22.40;84.40
35700;DHT22;21818;51.078;12.108;2023-06-10T09:29:45;22.40;84.40
35700;DHT22;21818;51.078;12.108;2023-06-10T09:32:10;22.40;84.30
35700;DHT22;21818;51.078;12.108;2023-06-10T09:34:36;22.40;84.20
35700;DHT22;21818;51.078;12.108;2023-06-10T09:37:02;22.40;84.20
35700;DHT22;21818;51.078;12.108;2023-06-10T09:39:27;22.40;84.10
35700;DHT22;21818;51.078;12.108;2023-06-10T09:41:53;22.40;84.10
35700;DHT22;21818;51.078;12.108;2023-06-10T09:44:20;22.40;84.00
35700;DHT22;21818;51.078;12.108;2023-06-10T09:46:48;22.40;84.00
35700;DHT22;21818;51.078;12.108;2023-06-10T09:49:16;22.40;83.90
35700;DHT22;21818;51.078;12.108;2023-06-10T09:51:52;22.50;83.90
35700;DHT22;21818;51.078;12.108;2023-06-10T09:54:18;22.50;83.80
35700;DHT22;21818;51.078;12.108;2023-06-10T09:56:47;22.50;83.80
35700;DHT22;21818;51.078;12.108;2023-06-10T09:59:13;22.50;83.70
35700;DHT22;21818;51.078;12.108;2023-06-10T10:01:39;22.50;83.70
35700;DHT22;21818;51.078;12.108;2023-06-10T10:04:04;22.50;83.70
35700;DHT22;21818;51.078;12.108;2023-06-10T10:06:30;22.50;83.60
35700;DHT22;21818;51.078;12.108;2023-06-10T10:08:56;22.50;83.60
35700;DHT22;21818;51.078;12.108;2023-06-10T10:11:22;22.50;83.50
35700;DHT22;21818;51.078;12.108;2023-06-10T10:13:49;22.50;83.50
35700;DHT22;21818;51.078;12.108;2023-06-10T10:16:36;22.50;83.40
35700;DHT22;21818;51.078;12.108;2023-06-10T10:19:10;22.50;83.40
35700;DHT22;21818;51.078;12.108;2023-06-10T10:21:44;22.60;83.40
35700;DHT22;21818;51.078;12.108;2023-06-10T10:24:18;22.60;83.40
35700;DHT22;21818;51.078;12.108;2023-06-10T10:26:47;22.60;83.30
35700;DHT22;21818;51.078;12.108;2023-06-10T10:29:31;22.60;83.30
35700;DHT22;21818;51.078;12.108;2023-06-10T10:31:59;22.60;83.20
35700;DHT22;21818;51.078;12.108;2023-06-10T10:34:49;22.60;83.20
35700;DHT22;21818;51.078;12.108;2023-06-10T10:37:16;22.60;83.10
35700;DHT22;21818;51.078;12.108;2023-06-10T10:39:42;22.60;83.10
35700;DHT22;21818;51.078;12.108;2023-06-10T10:42:08;22.60;83.10
35700;DHT22;21818;51.078;12.108;2023-06-10T10:44:37;22.60;83.00
35700;DHT22;21818;51.078;12.108;2023-06-10T10:47:03;22.60;83.00
35700;DHT22;21818;51.078;12.108;2023-06-10T10:49:31;22.70;83.00
35700;DHT22;21818;51.078;12.108;2023-06-10T10:51:58;22.70;83.00
35700;DHT22;21818;51.078;12.108;2023-06-10T10:54:32;22.70;82.90
35700;DHT22;21818;51.078;12.108;2023-06-10T10:57:15;22.70;82.90
35700;DHT22;21818;51.078;12.108;2023-06-10T10:59:56;22.70;82.80
35700;DHT22;21818;51.078;12.108;2023-06-10T11:05:06;22.70;82.80
35700;DHT22;21818;51.078;12.108;2023-06-10T11:07:34;22.70;82.70
35700;DHT22;21818;51.078;12.108;2023-06-10T11:10:10;22.70;82.70
35700;DHT22;21818;51.078;12.108;2023-06-10T11:15:19;22.80;82.60
35700;DHT22;21818;51.078;12.108;2023-06-10T11:18:07;22.80;82.60
35700;DHT22;21818;51.078;12.108;2023-06-10T11:23:30;22.80;82.50
35700;DHT22;21818;51.078;12.108;2023-06-10T11:28:40;22.80;82.40
35700;DHT22;21818;51.078;12.108;2023-06-10T11:31:06;22.80;82.40
35700;DHT22;21818;51.078;12.108;2023-06-10T11:33:32;22.80;82.30
35700;DHT22;21818;51.078;12.108;2023-06-10T11:35:58;22.80;82.20
35700;DHT22;21818;51.078;12.108;2023-06-10T11:38:24;22.90;82.20
35700;DHT22;21818;51.078;12.108;2023-06-10T11:40:51;22.90;82.20
35700;DHT22;21818;51.078;12.108;2023-06-10T11:43:19;22.90;82.10
35700;DHT22;21818;51.078;12.108;2023-06-10T11:45:45;22.90;82.10
35700;DHT22;21818;51.078;12.108;2023-06-10T11:48:12;22.90;82.10
35700;DHT22;21818;51.078;12.108;2023-06-10T11:50:38;22.90;82.00
35700;DHT22;21818;51.078;12.108;2023-06-10T11:53:04;22.90;82.00
35700;DHT22;21818;51.078;12.108;2023-06-10T11:55:48;22.90;82.00
35700;DHT22;21818;51.078;12.108;2023-06-10T11:58:18;23.00;81.90
35700;DHT22;21818;51.078;12.108;2023-06-10T12:00:48;22.90;81.90
35700;DHT22;21818;51.078;12.108;2023-06-10T12:03:15;22.90;81.80
35700;DHT22;21818;51.078;12.108;2023-06-10T12:05:40;23.00;81.80
35700;DHT22;21818;51.078;12.108;2023-06-10T12:08:18;23.00;81.80
35700;DHT22;21818;51.078;12.108;2023-06-10T12:10:44;23.00;81.80
35700;DHT22;21818;51.078;12.108;2023-06-10T12:13:10;23.00;81.70
35700;DHT22;21818;51.078;12.108;2023-06-10T12:15:35;23.00;81.70
35700;DHT22;21818;51.078;12.108;2023-06-10T12:18:02;23.00;81.70
35700;DHT22;21818;51.078;12.108;2023-06-10T12:20:29;23.00;81.60
35700;DHT22;21818;51.078;12.108;2023-06-10T12:22:55;23.00;81.60
35700;DHT22;21818;51.078;12.108;2023-06-10T12:25:25;23.00;81.60
35700;DHT22;21818;51.078;12.108;2023-06-10T12:27:52;23.00;81.50
35700;DHT22;21818;51.078;12.108;2023-06-10T12:30:23;23.00;81.50
35700;DHT22;21818;51.078;12.108;2023-06-10T12:32:49;23.10;81.60
35700;DHT22;21818;51.078;12.108;2023-06-10T12:35:20;23.10;81.50
35700;DHT22;21818;51.078;12.108;2023-06-10T12:40:37;23.10;81.40
35700;DHT22;21818;51.078;12.108;2023-06-10T12:43:04;23.10;81.40
35700;DHT22;21818;51.078;12.108;2023-06-10T12:45:37;23.10;81.30
35700;DHT22;21818;51.078;12.108;2023-06-10T12:48:09;23.10;81.20
35700;DHT22;21818;51.078;12.108;2023-06-10T12:50:39;23.10;81.20
35700;DHT22;21818;51.078;12.108;2023-06-10T12:53:05;23.20;81.20
35700;DHT22;21818;51.078;12.108;2023-06-10T12:55:31;23.20;81.20
35700;DHT22;21818;51.078;12.108;2023-06-10T12:57:58;23.20;81.10
35700;DHT22;21818;51.078;12.108;2023-06-10T13:00:23;23.20;81.00
35700;DHT22;21818;51.078;12.108;2023-06-10T13:02:54;23.20;81.00
35700;DHT22;21818;51.078;12.108;2023-06-10T13:05:20;23.20;80.90
35700;DHT22;21818;51.078;12.108;2023-06-10T13:07:46;23.20;80.90
35700;DHT22;21818;51.078;12.108;2023-06-10T13:10:16;23.20;80.80
35700;DHT22;21818;51.078;12.108;2023-06-10T13:12:43;23.30;80.80
35700;DHT22;21818;51.078;12.108;2023-06-10T13:15:09;23.30;80.80
35700;DHT22;21818;51.078;12.108;2023-06-10T13:17:35;23.30;80.70
35700;DHT22;21818;51.078;12.108;2023-06-10T13:20:04;23.30;80.60
35700;DHT22;21818;51.078;12.108;2023-06-10T13:22:31;23.30;80.60
35700;DHT22;21818;51.078;12.108;2023-06-10T13:24:58;23.40;80.60
35700;DHT22;21818;51.078;12.108;2023-06-10T13:27:25;23.40;80.50
35700;DHT22;21818;51.078;12.108;2023-06-10T13:29:50;23.40;80.50
35700;DHT22;21818;51.078;12.108;2023-06-10T13:32:16;23.40;80.40
35700;DHT22;21818;51.078;12.108;2023-06-10T13:34:41;23.40;80.40
35700;DHT22;21818;51.078;12.108;2023-06-10T13:37:07;23.40;80.30
35700;DHT22;21818;51.078;12.108;2023-06-10T13:39:32;23.50;80.30
35700;DHT22;21818;51.078;12.108;2023-06-10T13:41:58;23.50;80.30
35700;DHT22;21818;51.078;12.108;2023-06-10T13:44:24;23.50;80.20
35700;DHT22;21818;51.078;12.108;2023-06-10T13:46:49;23.50;80.10
35700;DHT22;21818;51.078;12.108;2023-06-10T13:49:15;23.50;80.10
35700;DHT22;21818;51.078;12.108;2023-06-10T13:51:40;23.50;80.00
35700;DHT22;21818;51.078;12.108;2023-06-10T13:54:06;23.50;80.00
35700;DHT22;21818;51.078;12.108;2023-06-10T13:56:32;23.60;80.00
35700;DHT22;21818;51.078;12.108;2023-06-10T13:59:03;23.60;79.90
35700;DHT22;21818;51.078;12.108;2023-06-10T14:01:28;23.60;79.90
35700;DHT22;21818;51.078;12.108;2023-06-10T14:03:54;23.60;79.80
35700;DHT22;21818;51.078;12.108;2023-06-10T14:06:20;23.60;79.80
35700;DHT22;21818;51.078;12.108;2023-06-10T14:08:45;23.60;79.70
35700;DHT22;21818;51.078;12.108;2023-06-10T14:11:11;23.60;79.70
35700;DHT22;21818;51.078;12.108;2023-06-10T14:13:36;23.60;79.70
35700;DHT22;21818;51.078;12.108;2023-06-10T14:16:04;23.60;79.60
35700;DHT22;21818;51.078;12.108;2023-06-10T14:18:30;23.60;79.60
35700;DHT22;21818;51.078;12.108;2023-06-10T14:20:56;23.70;79.60
35700;DHT22;21818;51.078;12.108;2023-06-10T14:23:21;23.70;79.50
35700;DHT22;21818;51.078;12.108;2023-06-10T14:25:47;23.70;79.50
35700;DHT22;21818;51.078;12.108;2023-06-10T14:28:12;23.70;79.40
35700;DHT22;21818;51.078;12.108;2023-06-10T14:30:38;23.70;79.40
35700;DHT22;21818;51.078;12.108;2023-06-10T14:33:03;23.70;79.30
35700;DHT22;21818;51.078;12.108;2023-06-10T14:35:29;23.70;79.30
35700;DHT22;21818;51.078;12.108;2023-06-10T14:37:54;23.80;79.30
35700;DHT22;21818;51.078;12.108;2023-06-10T14:40:20;23.80;79.30
35700;DHT22;21818;51.078;12.108;2023-06-10T14:42:48;23.80;79.20
35700;DHT22;21818;51.078;12.108;2023-06-10T14:45:13;23.80;79.10
35700;DHT22;21818;51.078;12.108;2023-06-10T14:47:40;23.90;79.20
35700;DHT22;21818;51.078;12.108;2023-06-10T14:50:06;23.90;79.20
35700;DHT22;21818;51.078;12.108;2023-06-10T14:52:31;23.80;79.00
35700;DHT22;21818;51.078;12.108;2023-06-10T14:54:57;23.90;79.00
35700;DHT22;21818;51.078;12.108;2023-06-10T14:57:22;23.90;79.00
35700;DHT22;21818;51.078;12.108;2023-06-10T14:59:48;23.90;78.90
35700;DHT22;21818;51.078;12.108;2023-06-10T15:02:14;23.90;78.90
35700;DHT22;21818;51.078;12.108;2023-06-10T15:04:39;23.90;78.90
35700;DHT22;21818;51.078;12.108;2023-06-10T15:07:05;23.90;78.90
35700;DHT22;21818;51.078;12.108;2023-06-10T15:09:31;24.00;78.90
35700;DHT22;21818;51.078;12.108;2023-06-10T15:11:57;24.00;78.80
35700;DHT22;21818;51.078;12.108;2023-06-10T15:14:23;24.00;78.80
35700;DHT22;21818;51.078;12.108;2023-06-10T15:16:48;24.00;78.80
35700;DHT22;21818;51.078;12.108;2023-06-10T15:19:14;24.00;78.70
35700;DHT22;21818;51.078;12.108;2023-06-10T15:21:40;24.00;78.70
35700;DHT22;21818;51.078;12.108;2023-06-10T15:24:05;24.00;78.70
35700;DHT22;21818;51.078;12.108;2023-06-10T15:26:31;24.00;78.70
35700;DHT22;21818;51.078;12.108;2023-06-10T15:28:57;24.00;78.60
35700;DHT22;21818;51.078;12.108;2023-06-10T15:31:22;24.00;78.60